Time;durP1;ratioP1;P1;durP2;ratioP2;P2;SDS_P1;SDS_P2;PMS_P1;PMS_P2;Temp;Humidity;BMP_temperature;BMP_pressure;BME280_temperature;BME280_humidity;BME280_pressure;Samples;Min_cycle;Max_cycle;Signal;HPM_P1;HPM_P2
2021/03/12 00:02:23;;;;;;;5.60;2.43;;;6.80;99.90;;;;;;5031184;28;20179;-64
2021/03/12 00:04:49;;;;;;;4.57;2.03;;;6.70;99.90;;;;;;5030854;28;20645;-64
2021/03/12 00:07:14;;;;;;;4.50;2.23;;;6.60;99.90;;;;;;5031299;28;20179;-64
2021/03/12 00:09:40;;;;;;;3.23;2.03;;;6.50;99.90;;;;;;5031070;28;20601;-64
2021/03/12 00:12:07;;;;;;;3.07;1.90;;;6.40;99.90;;;;;;5031152;28;20230;-64
2021/03/12 00:14:33;;;;;;;6.13;1.63;;;6.30;99.90;;;;;;5030932;28;20179;-64
2021/03/12 00:16:59;;;;;;;8.10;2.60;;;6.20;99.90;;;;;;5029600;28;20179;-64
2021/03/12 00:19:25;;;;;;;4.33;2.20;;;6.20;99.90;;;;;;5030760;28;20175;-64
2021/03/12 00:21:50;;;;;;;7.10;2.83;;;6.20;99.90;;;;;;5030502;28;20191;-64
2021/03/12 00:24:16;;;;;;;5.23;2.40;;;6.20;99.90;;;;;;5031071;28;20167;-64
2021/03/12 00:26:41;;;;;;;2.07;1.80;;;6.20;99.90;;;;;;5030933;28;20202;-64
2021/03/12 00:29:07;;;;;;;8.20;2.73;;;6.30;99.90;;;;;;5030995;28;20171;-65
2021/03/12 00:31:33;;;;;;;2.60;2.40;;;6.40;99.90;;;;;;5030703;28;20211;-65
2021/03/12 00:33:58;;;;;;;2.97;2.20;;;6.50;99.90;;;;;;5030974;28;20652;-64
2021/03/12 00:36:24;;;;;;;2.83;2.10;;;6.60;99.90;;;;;;5031044;28;20189;-64
2021/03/12 00:38:50;;;;;;;3.07;2.30;;;6.60;99.90;;;;;;5031460;28;20179;-64
2021/03/12 00:41:16;;;;;;;4.00;2.27;;;6.70;99.90;;;;;;5030293;28;20214;-64
2021/03/12 00:43:41;;;;;;;4.47;2.57;;;6.60;99.90;;;;;;5030979;28;20187;-64
2021/03/12 00:46:10;;;;;;;7.47;2.37;;;6.50;99.90;;;;;;5030774;28;20186;-64
2021/03/12 00:48:36;;;;;;;4.77;1.73;;;6.40;99.90;;;;;;5032217;28;20233;-64
2021/03/12 00:51:03;;;;;;;8.17;1.93;;;6.30;99.90;;;;;;5033916;28;20215;-64
2021/03/12 00:53:29;;;;;;;7.00;2.87;;;6.10;99.90;;;;;;5034691;28;20548;-64
2021/03/12 00:55:54;;;;;;;1.80;1.70;;;5.90;99.90;;;;;;5034512;28;20184;-64
2021/03/12 00:58:22;;;;;;;15.57;2.77;;;5.70;99.90;;;;;;5034676;28;20178;-64
2021/03/12 01:00:48;;;;;;;6.53;2.30;;;5.70;99.90;;;;;;5033630;28;20206;-64
2021/03/12 01:03:14;;;;;;;6.53;2.77;;;5.60;99.90;;;;;;5034184;28;20211;-64
2021/03/12 01:05:40;;;;;;;5.23;1.97;;;5.60;99.90;;;;;;5033926;28;20214;-64
2021/03/12 01:08:07;;;;;;;2.17;2.03;;;5.50;99.90;;;;;;5034395;28;20633;-64
2021/03/12 01:10:34;;;;;;;6.87;2.80;;;5.40;99.90;;;;;;5033633;28;20207;-64
2021/03/12 01:13:00;;;;;;;4.60;2.30;;;5.40;99.90;;;;;;5034022;28;20182;-64
2021/03/12 01:15:27;;;;;;;7.57;2.60;;;5.40;99.90;;;;;;5034299;28;20176;-64
2021/03/12 01:17:54;;;;;;;3.43;2.00;;;5.40;99.90;;;;;;5034003;28;20175;-64
2021/03/12 01:20:27;;;;;;;2.63;2.33;;;5.50;99.90;;;;;;5033843;28;20191;-64
2021/03/12 01:22:58;;;;;;;6.37;3.07;;;5.50;99.90;;;;;;5033816;28;20262;-64
2021/03/12 01:25:27;;;;;;;7.63;1.80;;;5.60;99.90;;;;;;5033937;28;20171;-64
2021/03/12 01:27:53;;;;;;;3.03;1.90;;;5.60;99.90;;;;;;5033792;28;20709;-64
2021/03/12 01:30:21;;;;;;;4.77;2.67;;;5.70;99.90;;;;;;5033482;28;20345;-65
2021/03/12 01:32:47;;;;;;;3.67;2.20;;;5.70;99.90;;;;;;5033992;28;22077;-64
2021/03/12 01:35:14;;;;;;;6.00;2.30;;;5.80;99.90;;;;;;5033930;28;20199;-64
2021/03/12 01:37:39;;;;;;;6.73;2.57;;;5.90;99.90;;;;;;5033547;28;20167;-64
2021/03/12 01:40:07;;;;;;;6.77;2.87;;;5.90;99.90;;;;;;5033427;28;20274;-64
2021/03/12 01:42:33;;;;;;;15.03;3.40;;;6.00;99.90;;;;;;5033129;28;20172;-64
2021/03/12 01:44:59;;;;;;;3.20;1.70;;;6.10;99.90;;;;;;5033570;28;20176;-64
2021/03/12 01:47:24;;;;;;;8.43;2.90;;;6.20;99.90;;;;;;5033453;28;20301;-64
2021/03/12 01:49:50;;;;;;;6.73;2.23;;;6.30;99.90;;;;;;5033343;28;20195;-64
2021/03/12 01:52:16;;;;;;;7.40;3.40;;;6.30;99.90;;;;;;5033054;28;20262;-64
2021/03/12 01:54:41;;;;;;;10.40;3.27;;;6.30;99.90;;;;;;5033784;28;20653;-64
2021/03/12 01:57:07;;;;;;;6.53;2.57;;;6.30;99.90;;;;;;5033305;28;20553;-64
2021/03/12 01:59:33;;;;;;;6.77;2.83;;;6.30;99.90;;;;;;5032865;28;20461;-64
2021/03/12 02:01:59;;;;;;;5.10;2.83;;;6.30;99.90;;;;;;5032758;28;20319;-64
2021/03/12 02:04:25;;;;;;;6.73;2.77;;;6.30;99.90;;;;;;5033175;28;20530;-64
2021/03/12 02:06:52;;;;;;;5.13;2.87;;;6.30;99.90;;;;;;5033220;28;20182;-65
2021/03/12 02:09:19;;;;;;;7.17;2.63;;;6.30;99.90;;;;;;5032734;28;20207;-65
2021/03/12 02:11:53;;;;;;;8.10;2.97;;;6.30;99.90;;;;;;5032959;28;20211;-64
2021/03/12 02:14:33;;;;;;;12.00;4.20;;;6.20;99.90;;;;;;5033014;28;20183;-64
2021/03/12 02:17:09;;;;;;;8.50;3.00;;;6.10;99.90;;;;;;5033260;28;20171;-64
2021/03/12 02:19:56;;;;;;;15.37;3.90;;;6.10;99.90;;;;;;5032502;28;20182;-64
2021/03/12 02:22:24;;;;;;;2.50;2.30;;;6.00;99.90;;;;;;5032949;28;20167;-64
2021/03/12 02:24:57;;;;;;;6.03;3.57;;;6.00;99.90;;;;;;5032730;28;20179;-64
2021/03/12 02:27:24;;;;;;;10.93;4.33;;;6.00;99.90;;;;;;5032985;28;20528;-64
2021/03/12 02:29:56;;;;;;;16.03;3.87;;;5.90;99.90;;;;;;5032257;28;20202;-64
2021/03/12 02:32:42;;;;;;;6.30;3.20;;;5.90;99.90;;;;;;5032774;28;20601;-64
2021/03/12 02:35:20;;;;;;;10.03;4.07;;;5.90;99.90;;;;;;5032390;28;20594;-64
2021/03/12 02:37:47;;;;;;;14.70;4.73;;;6.00;99.90;;;;;;5032327;28;20182;-64
2021/03/12 02:40:13;;;;;;;10.50;3.57;;;6.00;99.90;;;;;;5047298;22;20237;-64
2021/03/12 02:42:40;;;;;;;12.20;4.20;;;6.00;99.90;;;;;;5051820;28;20199;-65
2021/03/12 02:45:10;;;;;;;10.87;3.57;;;6.10;99.90;;;;;;5052503;28;20171;-66
2021/03/12 02:47:37;;;;;;;6.60;3.57;;;6.10;99.90;;;;;;5068243;28;20175;-65
2021/03/12 02:50:05;;;;;;;6.00;2.83;;;6.20;99.90;;;;;;5051629;28;20199;-64
2021/03/12 02:52:31;;;;;;;10.00;3.73;;;6.20;99.90;;;;;;5032559;28;20176;-64
2021/03/12 02:54:57;;;;;;;6.33;2.87;;;6.30;99.90;;;;;;5032418;28;20636;-65
2021/03/12 02:57:24;;;;;;;13.07;3.30;;;6.30;99.90;;;;;;5032648;28;20179;-64
2021/03/12 02:59:54;;;;;;;6.20;3.47;;;6.30;99.90;;;;;;5032104;28;20175;-65
2021/03/12 03:02:25;;;;;;;8.73;3.27;;;6.40;99.90;;;;;;5032298;28;20230;-65
2021/03/12 03:04:54;;;;;;;16.20;3.70;;;6.40;99.90;;;;;;5032059;28;20225;-66
2021/03/12 03:07:20;;;;;;;11.97;3.97;;;6.40;99.90;;;;;;5032671;28;20183;-64
2021/03/12 03:09:46;;;;;;;9.33;2.87;;;6.40;99.90;;;;;;5032163;28;20758;-66
2021/03/12 03:12:17;;;;;;;5.27;1.93;;;6.40;99.90;;;;;;5032013;28;20195;-65
2021/03/12 03:14:45;;;;;;;6.50;3.03;;;6.40;99.90;;;;;;5032111;28;20172;-65
2021/03/12 03:17:12;;;;;;;12.47;3.10;;;6.40;99.90;;;;;;5032348;28;20491;-66
2021/03/12 03:19:42;;;;;;;9.30;2.50;;;6.40;99.90;;;;;;5031963;28;20196;-65
2021/03/12 03:22:07;;;;;;;9.80;2.47;;;6.40;99.90;;;;;;5031840;28;20196;-66
2021/03/12 03:24:33;;;;;;;9.17;2.73;;;6.40;99.90;;;;;;5030650;28;20171;-66
2021/03/12 03:26:59;;;;;;;8.40;2.83;;;6.40;99.90;;;;;;5032598;28;20312;-65
2021/03/12 03:29:25;;;;;;;8.40;2.50;;;6.40;99.90;;;;;;5031659;28;20187;-65
2021/03/12 03:31:51;;;;;;;5.10;1.73;;;6.40;99.90;;;;;;5031727;28;20199;-65
2021/03/12 03:34:16;;;;;;;9.73;2.47;;;6.40;99.90;;;;;;5030543;28;20653;-64
2021/03/12 03:36:43;;;;;;;4.43;2.43;;;6.40;99.90;;;;;;5032060;28;20183;-64
2021/03/12 03:39:10;;;;;;;12.37;2.57;;;6.40;99.90;;;;;;5031626;28;20186;-65
2021/03/12 03:41:46;;;;;;;11.80;2.47;;;6.40;99.90;;;;;;5031266;28;20207;-65
2021/03/12 03:44:13;;;;;;;5.30;2.17;;;6.40;99.90;;;;;;5031905;28;20254;-66
2021/03/12 03:46:41;;;;;;;9.00;2.33;;;6.40;99.90;;;;;;5031899;28;20164;-65
2021/03/12 03:49:09;;;;;;;7.03;2.07;;;6.40;99.90;;;;;;5031599;28;20167;-66
2021/03/12 03:51:39;;;;;;;13.40;3.07;;;6.40;99.90;;;;;;5031380;28;20357;-65
2021/03/12 03:54:06;;;;;;;11.10;2.67;;;6.50;99.90;;;;;;5031870;28;20211;-64
2021/03/12 03:56:35;;;;;;;14.70;3.57;;;6.50;99.90;;;;;;5031699;28;20516;-65
2021/03/12 03:59:02;;;;;;;10.60;3.40;;;6.50;99.90;;;;;;5031624;28;20175;-65
2021/03/12 04:01:28;;;;;;;12.63;3.30;;;6.50;99.90;;;;;;5030669;28;20195;-65
2021/03/12 04:03:54;;;;;;;7.17;3.03;;;6.50;99.90;;;;;;5031285;28;20180;-65
2021/03/12 04:06:21;;;;;;;7.33;2.60;;;6.40;99.90;;;;;;5031734;28;20234;-65
2021/03/12 04:08:47;;;;;;;12.63;2.70;;;6.50;99.90;;;;;;5031066;28;20245;-65
2021/03/12 04:11:14;;;;;;;9.53;3.27;;;6.40;99.90;;;;;;5030873;28;20290;-64
2021/03/12 04:13:40;;;;;;;8.40;3.20;;;6.30;99.90;;;;;;5031750;28;20164;-65
2021/03/12 04:16:07;;;;;;;8.37;3.27;;;6.20;99.90;;;;;;5031275;28;20179;-65
2021/03/12 04:18:33;;;;;;;9.43;2.27;;;6.20;99.90;;;;;;5031880;28;20174;-65
2021/03/12 04:20:59;;;;;;;7.23;2.43;;;6.10;99.90;;;;;;5030981;28;20583;-65
2021/03/12 04:23:25;;;;;;;11.50;2.70;;;6.10;99.90;;;;;;5033815;28;20184;-64
2021/03/12 04:25:52;;;;;;;7.27;2.80;;;6.00;99.90;;;;;;5036376;28;20524;-65
2021/03/12 04:28:18;;;;;;;14.87;3.13;;;6.10;99.90;;;;;;5035528;28;20680;-65
2021/03/12 04:30:44;;;;;;;8.97;2.73;;;6.10;99.90;;;;;;5034570;28;20202;-64
2021/03/12 04:33:11;;;;;;;12.70;4.00;;;6.00;99.90;;;;;;5034107;28;20546;-64
2021/03/12 04:35:37;;;;;;;23.63;6.90;;;6.00;99.90;;;;;;5035363;28;20175;-66
2021/03/12 04:38:03;;;;;;;16.60;5.03;;;6.00;99.90;;;;;;5035608;28;20167;-65
2021/03/12 04:40:30;;;;;;;15.00;3.40;;;5.90;99.90;;;;;;5034428;28;20696;-66
2021/03/12 04:42:56;;;;;;;7.23;2.80;;;5.90;99.90;;;;;;5035540;28;20220;-64
2021/03/12 04:45:23;;;;;;;10.37;3.57;;;5.90;99.90;;;;;;5035022;28;20191;-64
2021/03/12 04:47:49;;;;;;;10.37;3.00;;;5.90;99.90;;;;;;5035830;28;20217;-65
2021/03/12 04:50:15;;;;;;;8.47;3.00;;;6.00;99.90;;;;;;5034935;28;20646;-65
2021/03/12 04:52:41;;;;;;;10.30;2.70;;;6.00;99.90;;;;;;5035455;28;20171;-65
2021/03/12 04:55:11;;;;;;;11.67;3.27;;;6.00;99.90;;;;;;5035089;28;20183;-65
2021/03/12 04:57:37;;;;;;;10.00;3.10;;;6.00;99.90;;;;;;5035015;28;20171;-65
2021/03/12 05:00:07;;;;;;;8.30;3.17;;;6.00;99.90;;;;;;5035132;28;20184;-65
2021/03/12 05:02:35;;;;;;;10.63;2.50;;;6.00;99.90;;;;;;5034369;28;20194;-65
2021/03/12 05:05:04;;;;;;;12.83;3.83;;;6.00;99.90;;;;;;5035246;28;20168;-64
2021/03/12 05:07:31;;;;;;;8.67;2.90;;;6.00;99.90;;;;;;5034536;28;20229;-66
2021/03/12 05:09:57;;;;;;;12.00;2.73;;;6.00;99.90;;;;;;5035073;28;20242;-65
2021/03/12 05:12:22;;;;;;;9.00;3.07;;;6.10;99.90;;;;;;5034676;28;20184;-65
2021/03/12 05:14:48;;;;;;;6.60;2.30;;;6.10;99.90;;;;;;5034973;28;20228;-65
2021/03/12 05:17:14;;;;;;;12.37;2.97;;;6.20;99.90;;;;;;5034310;28;20176;-65
2021/03/12 05:19:39;;;;;;;14.07;3.00;;;6.20;99.90;;;;;;5034768;28;20182;-65
2021/03/12 05:22:05;;;;;;;6.60;2.23;;;6.20;99.90;;;;;;5034147;28;20248;-65
2021/03/12 05:24:30;;;;;;;11.57;3.20;;;6.20;99.90;;;;;;5034762;28;20206;-65
2021/03/12 05:26:56;;;;;;;11.47;3.30;;;6.10;99.90;;;;;;5034871;28;20588;-65
2021/03/12 05:29:22;;;;;;;10.87;3.37;;;6.00;99.90;;;;;;5035057;28;20179;-64
2021/03/12 05:31:48;;;;;;;6.80;2.83;;;5.90;99.90;;;;;;5034590;28;20199;-65
2021/03/12 05:34:13;;;;;;;10.33;2.77;;;5.90;99.90;;;;;;5033709;28;20349;-64
2021/03/12 05:36:39;;;;;;;15.73;3.40;;;5.90;99.90;;;;;;5034280;28;20171;-66
2021/03/12 05:39:08;;;;;;;9.83;2.70;;;5.80;99.90;;;;;;5034266;28;20187;-65
2021/03/12 05:41:38;;;;;;;7.30;2.70;;;5.70;99.90;;;;;;5033582;28;20218;-64
2021/03/12 05:44:05;;;;;;;5.93;2.17;;;5.70;99.90;;;;;;5034605;28;20191;-64
2021/03/12 05:46:32;;;;;;;18.00;2.70;;;5.70;99.90;;;;;;5034417;28;20198;-65
2021/03/12 05:48:58;;;;;;;11.37;2.40;;;5.70;99.90;;;;;;5034630;28;20517;-65
2021/03/12 05:51:25;;;;;;;6.17;2.70;;;5.70;99.90;;;;;;5033765;28;20657;-65
2021/03/12 05:53:52;;;;;;;13.20;3.60;;;5.80;99.90;;;;;;5034100;28;20174;-65
2021/03/12 05:56:18;;;;;;;5.23;2.27;;;5.80;99.90;;;;;;5033780;28;20194;-65
2021/03/12 05:58:43;;;;;;;8.47;2.77;;;5.80;99.90;;;;;;5034074;28;20175;-65
2021/03/12 06:01:09;;;;;;;8.07;3.70;;;5.90;99.90;;;;;;5032943;28;20750;-65
2021/03/12 06:03:35;;;;;;;10.63;3.70;;;5.90;99.90;;;;;;5033814;28;20176;-65
2021/03/12 06:06:00;;;;;;;11.93;3.57;;;5.90;99.90;;;;;;5033413;28;20185;-65
2021/03/12 06:08:26;;;;;;;18.83;4.43;;;5.90;99.90;;;;;;5033476;28;20590;-64
2021/03/12 06:10:51;;;;;;;13.93;4.50;;;5.90;99.90;;;;;;5033132;28;20199;-66
2021/03/12 06:13:17;;;;;;;13.30;4.07;;;5.90;99.90;;;;;;5033499;28;20211;-65
2021/03/12 06:15:43;;;;;;;14.03;4.13;;;5.90;99.90;;;;;;5013511;28;20172;-66
2021/03/12 06:18:21;;;;;;;11.43;3.93;;;5.90;99.90;;;;;;5013655;28;20171;-65
2021/03/12 06:20:48;;;;;;;12.37;4.20;;;5.90;99.90;;;;;;5032942;28;20214;-65
2021/03/12 06:23:34;;;;;;;8.57;3.40;;;6.00;99.90;;;;;;5033561;28;20179;-65
2021/03/12 06:26:01;;;;;;;9.10;3.47;;;6.10;99.90;;;;;;5014157;28;20176;-66
2021/03/12 06:28:26;;;;;;;10.23;3.90;;;6.10;99.90;;;;;;5013463;28;20195;-63
2021/03/12 06:30:52;;;;;;;23.13;7.33;;;6.20;99.90;;;;;;5033143;28;20226;-65
2021/03/12 06:33:28;;;;;;;19.67;4.00;;;6.30;99.90;;;;;;5033426;28;20227;-66
2021/03/12 06:35:55;;;;;;;11.10;4.03;;;6.30;99.90;;;;;;5033046;28;20252;-66
2021/03/12 06:38:21;;;;;;;15.90;5.53;;;6.40;99.90;;;;;;5033175;28;20164;-65
2021/03/12 06:40:47;;;;;;;10.50;3.93;;;6.40;99.90;;;;;;5030746;28;20207;-65
2021/03/12 06:43:17;;;;;;;12.63;3.57;;;6.50;99.90;;;;;;5032972;28;20525;-65
2021/03/12 06:45:52;;;;;;;5.93;2.87;;;6.60;99.90;;;;;;5032666;28;20178;-64
2021/03/12 06:48:20;;;;;;;10.57;4.10;;;6.60;99.90;;;;;;5032632;28;20186;-65
2021/03/12 06:50:48;;;;;;;10.40;3.27;;;6.60;99.90;;;;;;5032296;28;20200;-64
2021/03/12 06:53:34;;;;;;;9.67;3.17;;;6.60;99.90;;;;;;5032358;28;20258;-65
2021/03/12 06:56:06;;;;;;;7.70;2.90;;;6.70;99.90;;;;;;5032544;28;20210;-65
2021/03/12 06:58:32;;;;;;;13.87;3.60;;;6.80;99.90;;;;;;5032202;28;20238;-64
2021/03/12 07:00:59;;;;;;;11.40;3.40;;;6.80;99.90;;;;;;5031715;28;20191;-65
2021/03/12 07:03:33;;;;;;;15.47;3.50;;;6.90;99.90;;;;;;5031758;28;20198;-66
2021/03/12 07:06:04;;;;;;;4.07;2.43;;;7.00;99.90;;;;;;5031028;28;20182;-64
2021/03/12 07:08:41;;;;;;;9.33;2.83;;;7.00;99.90;;;;;;5032073;28;20182;-65
2021/03/12 07:11:19;;;;;;;9.87;4.73;;;7.10;99.90;;;;;;5032289;28;20203;-63
2021/03/12 07:13:46;;;;;;;9.37;3.20;;;7.10;99.90;;;;;;5032231;28;20302;-64
2021/03/12 07:16:12;;;;;;;10.60;4.23;;;7.20;99.90;;;;;;5031801;28;20716;-65
2021/03/12 07:18:37;;;;;;;14.73;5.07;;;7.30;99.90;;;;;;5032253;28;20258;-65
2021/03/12 07:21:05;;;;;;;17.90;7.03;;;7.50;99.90;;;;;;5031808;28;20187;-65
2021/03/12 07:23:36;;;;;;;20.63;6.53;;;7.60;99.90;;;;;;5031694;28;20168;-64
2021/03/12 07:26:02;;;;;;;8.57;2.90;;;7.70;99.90;;;;;;5032073;28;20561;-65
2021/03/12 07:28:30;;;;;;;12.53;2.77;;;7.70;99.90;;;;;;5030457;28;20179;-65
2021/03/12 07:30:56;;;;;;;11.30;3.73;;;7.70;99.90;;;;;;5031289;28;20207;-66
2021/03/12 07:33:26;;;;;;;6.83;3.80;;;7.80;99.90;;;;;;5032288;28;20174;-64
2021/03/12 07:35:58;;;;;;;9.23;4.07;;;7.90;99.90;;;;;;5031388;28;20214;-66
2021/03/12 07:38:25;;;;;;;10.83;2.73;;;8.00;99.90;;;;;;5031378;28;20163;-65
2021/03/12 07:40:53;;;;;;;14.20;3.80;;;8.30;99.90;;;;;;5030684;28;20282;-65
2021/03/12 07:43:19;;;;;;;11.13;3.07;;;8.50;99.90;;;;;;5031411;28;20206;-64
2021/03/12 07:45:45;;;;;;;9.37;3.10;;;8.70;99.90;;;;;;5029815;28;20270;-64
2021/03/12 07:48:12;;;;;;;9.33;2.37;;;8.70;99.90;;;;;;5031311;28;20693;-66
2021/03/12 07:50:39;;;;;;;8.80;3.60;;;8.80;99.90;;;;;;5030678;28;20282;-66
2021/03/12 07:53:07;;;;;;;6.03;2.73;;;9.00;99.90;;;;;;5031712;28;20224;-65
2021/03/12 07:55:35;;;;;;;5.37;2.37;;;9.10;99.90;;;;;;5030673;28;20174;-65
2021/03/12 07:58:02;;;;;;;9.13;2.67;;;9.10;99.90;;;;;;5031171;28;20595;-65
2021/03/12 08:00:27;;;;;;;11.37;2.80;;;8.90;99.90;;;;;;5030477;28;20241;-65
2021/03/12 08:02:56;;;;;;;18.83;3.17;;;8.80;99.90;;;;;;5031303;28;20258;-64
2021/03/12 08:05:29;;;;;;;15.33;3.23;;;8.70;99.90;;;;;;5031076;28;20671;-65
2021/03/12 08:07:55;;;;;;;10.97;3.10;;;8.60;99.90;;;;;;5011628;28;20180;-65
2021/03/12 08:10:22;;;;;;;13.03;2.87;;;8.50;99.90;;;;;;5011044;28;20550;-65
2021/03/12 08:12:49;;;;;;;20.43;3.20;;;8.60;99.90;;;;;;5030054;28;20459;-65
2021/03/12 08:15:15;;;;;;;10.00;3.07;;;8.60;99.90;;;;;;5031384;28;20175;-65
2021/03/12 08:17:45;;;;;;;8.70;3.13;;;8.60;99.90;;;;;;5030743;28;20189;-65
2021/03/12 08:20:26;;;;;;;14.13;4.30;;;8.70;99.90;;;;;;5031162;28;20659;-64
2021/03/12 08:23:01;;;;;;;6.40;2.73;;;8.70;99.90;;;;;;5031183;28;20660;-65
2021/03/12 08:25:35;;;;;;;10.87;3.20;;;8.70;99.90;;;;;;5030977;28;20185;-65
2021/03/12 08:28:24;;;;;;;12.70;2.33;;;8.70;99.90;;;;;;5030583;28;20179;-65
2021/03/12 08:30:51;;;;;;;10.13;2.77;;;8.70;99.90;;;;;;5030213;28;20309;-64
2021/03/12 08:33:20;;;;;;;8.37;3.00;;;8.70;99.90;;;;;;5031061;28;20174;-65
2021/03/12 08:35:47;;;;;;;9.77;2.60;;;8.70;99.90;;;;;;5030532;28;20180;-65
2021/03/12 08:38:28;;;;;;;6.63;2.63;;;8.70;99.90;;;;;;5031336;28;20230;-65
2021/03/12 08:40:57;;;;;;;6.27;2.37;;;8.80;99.90;;;;;;5030627;28;20299;-65
2021/03/12 08:43:27;;;;;;;10.33;2.27;;;8.80;99.90;;;;;;5030915;28;20543;-65
2021/03/12 08:46:03;;;;;;;6.77;2.40;;;9.00;99.90;;;;;;5030633;28;20645;-65
2021/03/12 08:48:34;;;;;;;9.27;2.40;;;9.30;99.90;;;;;;5030785;28;20191;-64
2021/03/12 08:51:24;;;;;;;10.50;2.60;;;9.50;99.90;;;;;;5030558;28;20625;-65
2021/03/12 08:53:51;;;;;;;14.47;3.53;;;9.60;99.90;;;;;;5030601;28;20602;-65
2021/03/12 08:56:22;;;;;;;10.17;2.60;;;9.70;99.90;;;;;;5030919;28;20254;-64
2021/03/12 08:58:48;;;;;;;12.90;3.03;;;9.60;99.90;;;;;;5030821;28;20203;-65
2021/03/12 09:01:16;;;;;;;10.53;3.10;;;9.50;99.90;;;;;;5030452;28;20738;-66
2021/03/12 09:03:47;;;;;;;5.70;2.00;;;9.50;99.90;;;;;;5029860;28;20175;-66
2021/03/12 09:06:15;;;;;;;11.10;4.10;;;9.50;99.90;;;;;;5030969;28;20263;-65
2021/03/12 09:08:43;;;;;;;4.40;2.23;;;9.50;99.90;;;;;;5031075;28;20191;-65
2021/03/12 09:11:11;;;;;;;6.17;2.23;;;9.50;99.90;;;;;;5034016;28;20750;-65
2021/03/12 09:13:39;;;;;;;12.17;3.20;;;9.40;99.90;;;;;;5033753;28;20270;-65
2021/03/12 09:16:08;;;;;;;9.03;3.60;;;9.50;99.90;;;;;;5034059;28;20176;-67
2021/03/12 09:18:35;;;;;;;7.37;2.80;;;9.70;99.90;;;;;;5034121;28;20175;-64
2021/03/12 09:21:05;;;;;;;12.03;2.73;;;9.80;99.90;;;;;;5031961;28;20282;-65
2021/03/12 09:23:49;;;;;;;7.23;2.87;;;9.90;99.90;;;;;;5034013;28;20238;-65
2021/03/12 09:26:16;;;;;;;6.23;2.53;;;10.00;99.90;;;;;;5032365;28;20199;-65
2021/03/12 09:28:43;;;;;;;10.90;2.50;;;10.30;99.90;;;;;;5033860;28;20191;-64
2021/03/12 09:31:11;;;;;;;12.23;3.97;;;10.50;99.90;;;;;;5032870;28;20211;-65
2021/03/12 09:33:41;;;;;;;10.57;2.73;;;10.50;99.90;;;;;;5034010;28;20191;-63
2021/03/12 09:36:35;;;;;;;7.60;3.00;;;10.50;99.90;;;;;;5034147;28;20174;-65
2021/03/12 09:39:21;;;;;;;14.47;3.07;;;10.70;99.90;;;;;;5034412;28;20164;-65
2021/03/12 09:41:53;;;;;;;9.93;2.97;;;10.90;99.90;;;;;;5032939;28;20299;-65
2021/03/12 09:44:19;;;;;;;7.17;2.50;;;11.00;99.90;;;;;;5033970;28;20172;-67
2021/03/12 09:46:46;;;;;;;8.30;2.40;;;11.30;99.90;;;;;;5033564;28;20212;-65
2021/03/12 09:49:20;;;;;;;10.80;3.13;;;11.50;99.90;;;;;;5033461;28;20167;-65
2021/03/12 09:51:49;;;;;;;22.47;3.27;;;11.60;99.90;;;;;;5031566;28;20214;-66
2021/03/12 09:54:16;;;;;;;11.00;2.10;;;11.80;99.90;;;;;;5033422;28;20176;-64
2021/03/12 09:56:48;;;;;;;8.73;2.40;;;12.10;99.90;;;;;;5033242;28;20188;-66
2021/03/12 09:59:14;;;;;;;8.80;2.47;;;12.10;99.90;;;;;;5033282;28;20281;-66
2021/03/12 10:01:42;;;;;;;7.37;2.43;;;12.10;99.90;;;;;;5032667;28;20191;-66
2021/03/12 10:04:26;;;;;;;6.87;2.53;;;12.20;99.90;;;;;;5033196;28;20203;-65
2021/03/12 10:07:02;;;;;;;10.97;2.80;;;11.70;99.90;;;;;;5013276;28;20173;-66
2021/03/12 10:09:29;;;;;;;6.97;2.47;;;11.30;99.90;;;;;;5012520;28;20168;-66
2021/03/12 10:11:56;;;;;;;8.13;2.43;;;11.20;99.90;;;;;;5013203;28;20212;-65
2021/03/12 10:14:32;;;;;;;9.83;2.67;;;11.60;99.90;;;;;;5018725;28;20206;-66
2021/03/12 10:17:08;;;;;;;6.40;2.37;;;12.20;99.90;;;;;;5033306;28;20199;-66
2021/03/12 10:19:48;;;;;;;7.57;2.03;;;11.80;99.90;;;;;;5032466;28;20186;-65
2021/03/12 10:22:23;;;;;;;8.50;2.93;;;11.80;99.90;;;;;;5033014;28;20256;-66
2021/03/12 10:24:54;;;;;;;9.77;2.37;;;11.80;99.90;;;;;;5033145;28;20520;-65
2021/03/12 10:27:22;;;;;;;8.03;2.57;;;12.00;99.90;;;;;;5032651;28;20172;-64
2021/03/12 10:29:48;;;;;;;8.00;2.23;;;12.20;99.90;;;;;;5032336;28;20171;-65
2021/03/12 10:32:15;;;;;;;8.97;2.50;;;12.40;99.90;;;;;;5032601;28;20341;-66
2021/03/12 10:34:50;;;;;;;7.53;2.40;;;12.90;99.90;;;;;;5032501;28;20700;-65
2021/03/12 10:37:20;;;;;;;7.93;2.57;;;13.30;99.90;;;;;;5032703;28;20202;-65
2021/03/12 10:39:52;;;;;;;7.63;2.50;;;13.80;99.90;;;;;;5032418;28;20171;-65
2021/03/12 10:42:26;;;;;;;9.43;2.40;;;14.20;99.90;;;;;;5032032;28;20203;-65
2021/03/12 10:44:55;;;;;;;5.57;2.20;;;14.50;99.90;;;;;;5032283;28;20343;-65
2021/03/12 10:47:20;;;;;;;9.07;2.90;;;14.20;99.90;;;;;;5032210;28;20168;-65
2021/03/12 10:49:46;;;;;;;5.17;2.27;;;14.30;99.90;;;;;;5032132;28;20343;-65
2021/03/12 10:52:28;;;;;;;7.60;2.13;;;14.60;99.90;;;;;;5032176;28;20187;-65
2021/03/12 10:54:55;;;;;;;6.07;1.90;;;14.20;99.90;;;;;;5032507;28;20168;-64
2021/03/12 10:57:47;;;;;;;8.53;2.67;;;13.30;99.90;;;;;;5032137;28;20255;-66
2021/03/12 11:00:23;;;;;;;7.37;1.83;;;12.70;99.90;;;;;;5032084;28;20664;-64
2021/03/12 11:02:49;;;;;;;5.47;2.53;;;12.60;99.90;;;;;;5031626;28;20171;-64
2021/03/12 11:05:17;;;;;;;7.70;2.13;;;12.40;99.90;;;;;;5032137;28;20871;-64
2021/03/12 11:07:46;;;;;;;7.73;2.40;;;12.30;99.90;;;;;;5031546;28;20206;-64
2021/03/12 11:10:12;;;;;;;5.27;2.10;;;12.40;99.90;;;;;;5031473;28;20199;-65
2021/03/12 11:12:44;;;;;;;9.97;3.77;;;12.60;99.90;;;;;;5031463;28;20546;-65
2021/03/12 11:15:12;;;;;;;9.43;1.83;;;12.30;99.90;;;;;;5031895;28;20218;-65
2021/03/12 11:17:41;;;;;;;2.93;1.67;;;12.30;99.90;;;;;;5031600;28;20174;-64
2021/03/12 11:20:07;;;;;;;4.80;2.33;;;12.20;99.90;;;;;;5031569;28;20171;-66
2021/03/12 11:22:34;;;;;;;5.30;2.27;;;12.40;99.90;;;;;;5031525;28;20207;-64
2021/03/12 11:25:02;;;;;;;6.93;2.77;;;12.80;99.90;;;;;;5031959;28;20172;-65
2021/03/12 11:27:28;;;;;;;8.20;2.30;;;12.90;99.90;;;;;;5031329;28;20237;-65
2021/03/12 11:29:54;;;;;;;5.10;2.57;;;12.90;99.90;;;;;;5031596;28;20179;-64
2021/03/12 11:32:20;;;;;;;7.17;2.30;;;12.70;99.90;;;;;;5030334;28;20187;-64
2021/03/12 11:34:46;;;;;;;9.50;2.17;;;12.60;99.90;;;;;;5031543;28;20176;-65
2021/03/12 11:37:12;;;;;;;6.80;2.13;;;12.30;99.90;;;;;;5031596;28;20167;-65
2021/03/12 11:39:38;;;;;;;6.53;2.00;;;11.80;99.90;;;;;;5031461;28;20352;-65
2021/03/12 11:42:04;;;;;;;6.60;2.10;;;11.70;99.90;;;;;;5030824;28;20298;-64
2021/03/12 11:44:31;;;;;;;5.67;2.00;;;11.70;99.90;;;;;;5031072;28;20218;-65
2021/03/12 11:46:57;;;;;;;4.90;1.70;;;11.90;99.90;;;;;;5031146;28;20183;-65
2021/03/12 11:49:22;;;;;;;8.77;3.13;;;11.90;99.90;;;;;;5031240;28;20241;-65
2021/03/12 11:51:52;;;;;;;5.63;1.97;;;11.80;99.90;;;;;;5030873;28;20231;-65
2021/03/12 11:54:18;;;;;;;2.67;1.40;;;11.80;99.90;;;;;;5031272;28;20188;-65
2021/03/12 11:56:44;;;;;;;3.90;2.43;;;12.40;99.90;;;;;;5031231;28;20190;-64
2021/03/12 11:59:11;;;;;;;5.63;2.40;;;12.40;99.90;;;;;;5031000;28;20180;-66
2021/03/12 12:01:37;;;;;;;6.23;2.30;;;12.50;99.90;;;;;;5030221;28;20199;-66
2021/03/12 12:04:03;;;;;;;6.77;1.93;;;12.40;99.90;;;;;;5031280;28;20623;-64
2021/03/12 12:06:28;;;;;;;4.20;1.90;;;12.20;99.90;;;;;;5030818;28;20667;-66
2021/03/12 12:08:54;;;;;;;3.43;2.00;;;12.00;99.90;;;;;;5030932;28;20203;-65
2021/03/12 12:11:20;;;;;;;5.73;2.13;;;11.90;99.90;;;;;;5030727;28;20289;-65
2021/03/12 12:13:45;;;;;;;6.37;2.23;;;11.90;99.90;;;;;;5030747;28;20477;-66
2021/03/12 12:16:11;;;;;;;7.17;1.87;;;12.00;99.90;;;;;;5031214;28;20179;-66
2021/03/12 12:18:37;;;;;;;3.73;2.00;;;12.30;99.90;;;;;;5030877;28;20206;-65
2021/03/12 12:21:03;;;;;;;4.77;1.63;;;12.30;99.90;;;;;;5030388;28;20673;-65
2021/03/12 12:23:28;;;;;;;3.17;1.70;;;12.10;99.90;;;;;;5030680;28;20236;-64
2021/03/12 12:25:54;;;;;;;6.33;2.23;;;12.10;99.90;;;;;;5030990;28;20738;-65
2021/03/12 12:28:20;;;;;;;6.03;2.07;;;12.20;99.90;;;;;;5030996;28;20186;-66
2021/03/12 12:30:45;;;;;;;6.63;2.10;;;12.20;99.90;;;;;;5030485;28;20215;-65
2021/03/12 12:33:11;;;;;;;4.30;2.10;;;12.40;99.90;;;;;;5031056;28;20183;-64
2021/03/12 12:35:38;;;;;;;7.23;2.13;;;12.30;99.90;;;;;;5030749;28;20176;-65
2021/03/12 12:38:05;;;;;;;6.60;1.97;;;12.30;99.90;;;;;;5031251;28;20176;-66
2021/03/12 12:40:31;;;;;;;4.10;1.87;;;12.20;99.90;;;;;;5030643;28;20642;-66
2021/03/12 12:42:56;;;;;;;10.77;2.77;;;12.10;99.90;;;;;;5031517;28;20199;-66
2021/03/12 12:45:22;;;;;;;8.87;3.00;;;12.20;99.90;;;;;;5034536;28;20202;-65
2021/03/12 12:47:48;;;;;;;10.00;3.43;;;12.20;99.90;;;;;;5034435;28;20177;-65
2021/03/12 12:50:14;;;;;;;8.23;2.10;;;12.20;99.90;;;;;;5033937;28;20203;-65
2021/03/12 12:52:40;;;;;;;7.90;3.27;;;12.10;99.90;;;;;;5034601;28;20280;-66
2021/03/12 12:55:06;;;;;;;7.70;2.30;;;12.00;99.90;;;;;;5034818;28;20179;-64
2021/03/12 12:57:32;;;;;;;8.07;2.33;;;11.80;99.90;;;;;;5034108;28;20206;-64